createdAt,value
2023-07-16T00:00:05.180Z,6.05
2023-07-16T00:00:18.007Z,6.30
2023-07-16T00:00:35.086Z,6.68
2023-07-16T00:00:50.847Z,6.38
2023-07-16T00:01:02.736Z,6.15
2023-07-16T00:01:14.459Z,6.32
2023-07-16T00:01:26.298Z,6.80
2023-07-16T00:01:38.067Z,6.55
2023-07-16T00:01:49.895Z,6.03
2023-07-16T00:02:01.727Z,5.85
2023-07-16T00:02:13.584Z,6.20
2023-07-16T00:02:25.435Z,6.55
2023-07-16T00:02:38.494Z,6.57
2023-07-16T00:02:50.364Z,6.00
2023-07-16T00:03:02.181Z,6.18
2023-07-16T00:03:13.989Z,6.13
2023-07-16T00:03:25.775Z,6.30
2023-07-16T00:03:37.505Z,6.00
2023-07-16T00:03:49.296Z,5.60
2023-07-16T00:04:01.113Z,5.80
2023-07-16T00:04:12.966Z,6.38
2023-07-16T00:04:24.806Z,6.60
2023-07-16T00:04:36.631Z,6.40
2023-07-16T00:04:48.470Z,6.25
2023-07-16T00:05:00.270Z,5.93
2023-07-16T00:05:12.240Z,6.22
2023-07-16T00:05:23.988Z,6.13
2023-07-16T00:05:37.754Z,6.57
2023-07-16T00:05:50.955Z,6.63
2023-07-16T00:06:02.660Z,6.60
2023-07-16T00:06:14.515Z,6.43
2023-07-16T00:06:26.482Z,6.13
2023-07-16T00:06:38.285Z,5.80
2023-07-16T00:06:50.098Z,6.40
2023-07-16T00:07:01.899Z,6.28
2023-07-16T00:07:13.626Z,6.15
2023-07-16T00:07:25.406Z,6.45
2023-07-16T00:07:37.168Z,6.60
2023-07-16T00:07:48.942Z,6.53
2023-07-16T00:08:00.662Z,6.43
2023-07-16T00:08:12.396Z,6.43
2023-07-16T00:08:24.255Z,6.55
2023-07-16T00:08:36.023Z,7.40
2023-07-16T00:08:47.795Z,7.60
2023-07-16T00:09:00.844Z,7.10
2023-07-16T00:09:12.563Z,6.40
2023-07-16T00:09:24.309Z,6.28
2023-07-16T00:09:36.022Z,6.38
2023-07-16T00:09:47.765Z,6.40
2023-07-16T00:09:59.566Z,6.72
2023-07-16T00:10:11.648Z,6.75
2023-07-16T00:10:23.422Z,6.53
2023-07-16T00:10:36.241Z,6.13
2023-07-16T00:10:48.072Z,6.40
2023-07-16T00:10:59.804Z,6.75
2023-07-16T00:11:11.561Z,6.70
2023-07-16T00:11:23.315Z,6.43
2023-07-16T00:11:35.059Z,6.63
2023-07-16T00:11:46.784Z,6.55
2023-07-16T00:11:58.554Z,6.10
2023-07-16T00:12:10.307Z,5.82
2023-07-16T00:12:22.063Z,5.90
2023-07-16T00:12:33.834Z,5.93
2023-07-16T00:12:45.666Z,6.43
2023-07-16T00:12:57.354Z,6.50
2023-07-16T00:13:09.202Z,6.82
2023-07-16T00:13:20.964Z,6.80
2023-07-16T00:13:32.714Z,6.45
2023-07-16T00:13:44.484Z,6.45
2023-07-16T00:13:56.242Z,6.80
2023-07-16T00:14:08.164Z,7.00
2023-07-16T00:14:20.000Z,6.63
2023-07-16T00:14:31.805Z,6.45
2023-07-16T00:14:43.487Z,6.32
2023-07-16T00:14:55.204Z,6.05
2023-07-16T00:15:08.276Z,6.55
2023-07-16T00:15:20.021Z,6.88
2023-07-16T00:15:31.850Z,6.78
2023-07-16T00:15:43.532Z,6.40
2023-07-16T00:15:56.589Z,6.10
2023-07-16T00:16:08.381Z,6.03
2023-07-16T00:16:20.199Z,6.15
2023-07-16T00:16:32.056Z,5.90
2023-07-16T00:16:43.893Z,5.70
2023-07-16T00:16:55.849Z,5.88
2023-07-16T00:17:07.737Z,6.13
2023-07-16T00:17:19.496Z,6.13
2023-07-16T00:17:31.241Z,6.22
2023-07-16T00:17:42.953Z,5.93
2023-07-16T00:17:54.693Z,6.10
2023-07-16T00:18:06.480Z,5.82
2023-07-16T00:18:18.312Z,6.07
2023-07-16T00:18:30.009Z,6.32
2023-07-16T00:18:42.614Z,6.45
2023-07-16T00:18:54.375Z,6.60
2023-07-16T00:19:06.081Z,6.57
2023-07-16T00:19:20.658Z,6.57
2023-07-16T00:19:32.450Z,6.03
2023-07-16T00:19:44.148Z,5.82
2023-07-16T00:19:55.891Z,5.88
2023-07-16T00:20:09.029Z,5.80
2023-07-16T00:20:20.897Z,5.97
2023-07-16T00:20:32.670Z,6.25
2023-07-16T00:20:44.451Z,6.47
2023-07-16T00:20:56.143Z,6.45
2023-07-16T00:21:07.848Z,6.80
2023-07-16T00:21:19.566Z,6.72
2023-07-16T00:21:31.375Z,6.50
2023-07-16T00:21:43.073Z,6.32
2023-07-16T00:21:54.864Z,5.97
2023-07-16T00:22:06.615Z,5.53
2023-07-16T00:22:18.354Z,5.50
2023-07-16T00:22:30.104Z,5.38
2023-07-16T00:22:41.980Z,5.60
2023-07-16T00:22:55.776Z,5.90
2023-07-16T00:23:07.596Z,5.70
2023-07-16T00:23:19.390Z,5.60
2023-07-16T00:23:31.080Z,5.65
2023-07-16T00:23:42.896Z,5.82
2023-07-16T00:23:54.630Z,5.95
2023-07-16T00:24:06.586Z,5.68
2023-07-16T00:24:18.377Z,5.78
2023-07-16T00:24:30.094Z,6.07
2023-07-16T00:24:41.803Z,6.28
2023-07-16T00:24:53.544Z,6.07
2023-07-16T00:25:06.636Z,5.72
2023-07-16T00:25:18.505Z,5.47
2023-07-16T00:25:30.263Z,5.72
2023-07-16T00:25:41.953Z,5.53
2023-07-16T00:25:53.786Z,5.82
2023-07-16T00:26:05.532Z,5.45
2023-07-16T00:26:18.071Z,5.63
2023-07-16T00:26:30.003Z,5.75
2023-07-16T00:26:41.775Z,5.93
2023-07-16T00:26:54.434Z,6.07
2023-07-16T00:27:06.246Z,5.70
2023-07-16T00:27:18.023Z,5.90
2023-07-16T00:27:29.803Z,5.82
2023-07-16T00:27:41.499Z,5.78
2023-07-16T00:27:54.161Z,5.60
2023-07-16T00:28:05.897Z,6.18
2023-07-16T00:28:17.621Z,6.28
2023-07-16T00:28:29.305Z,6.28
2023-07-16T00:28:41.071Z,5.75
2023-07-16T00:28:52.839Z,6.05
2023-07-16T00:29:04.669Z,6.30
2023-07-16T00:29:17.421Z,6.22
2023-07-16T00:29:29.203Z,6.60
2023-07-16T00:29:40.917Z,6.55
2023-07-16T00:29:52.658Z,6.40
2023-07-16T00:30:05.305Z,5.75
2023-07-16T00:30:17.189Z,5.50
2023-07-16T00:30:28.954Z,5.78
2023-07-16T00:30:40.862Z,5.72
2023-07-16T00:30:53.209Z,5.93
2023-07-16T00:31:06.426Z,6.28
2023-07-16T00:31:18.247Z,6.00
2023-07-16T00:31:30.032Z,5.90
2023-07-16T00:31:41.823Z,5.75
2023-07-16T00:31:53.570Z,5.70
2023-07-16T00:32:05.934Z,5.75
2023-07-16T00:32:17.706Z,6.20
2023-07-16T00:32:29.484Z,5.90
2023-07-16T00:32:41.315Z,5.88
2023-07-16T00:32:53.183Z,6.03
2023-07-16T00:33:04.998Z,6.07
2023-07-16T00:33:16.767Z,5.55
2023-07-16T00:33:28.503Z,5.25
2023-07-16T00:33:40.300Z,5.88
2023-07-16T00:33:52.266Z,6.55
2023-07-16T00:34:04.004Z,6.15
2023-07-16T00:34:15.867Z,6.03
2023-07-16T00:34:27.648Z,6.05
2023-07-16T00:34:39.423Z,6.35
2023-07-16T00:34:51.738Z,6.57
2023-07-16T00:35:03.936Z,6.18
2023-07-16T00:35:15.826Z,6.10
2023-07-16T00:35:27.611Z,6.07
2023-07-16T00:35:39.346Z,5.60
2023-07-16T00:35:51.557Z,5.63
2023-07-16T00:36:03.370Z,5.63
2023-07-16T00:36:15.312Z,6.20
2023-07-16T00:36:27.398Z,5.97
2023-07-16T00:36:39.144Z,6.25
2023-07-16T00:36:51.259Z,6.28
2023-07-16T00:37:03.249Z,6.80
2023-07-16T00:37:15.143Z,6.32
2023-07-16T00:37:26.901Z,6.35
2023-07-16T00:37:38.633Z,6.20
2023-07-16T00:37:52.542Z,6.30
2023-07-16T00:38:04.276Z,6.10
2023-07-16T00:38:16.106Z,6.00
2023-07-16T00:38:27.820Z,6.20
2023-07-16T00:38:39.556Z,6.03
2023-07-16T00:38:52.209Z,5.70
2023-07-16T00:39:04.120Z,5.85
2023-07-16T00:39:15.907Z,5.57
2023-07-16T00:39:27.639Z,5.82
2023-07-16T00:39:39.411Z,5.85
2023-07-16T00:39:51.138Z,5.93
2023-07-16T00:40:03.253Z,5.60
2023-07-16T00:40:15.096Z,5.63
2023-07-16T00:40:26.930Z,6.03
2023-07-16T00:40:38.654Z,6.40
2023-07-16T00:40:50.517Z,5.97
2023-07-16T00:41:02.328Z,5.57
2023-07-16T00:41:14.516Z,5.72
2023-07-16T00:41:26.342Z,5.93
2023-07-16T00:41:38.101Z,6.10
2023-07-16T00:41:49.820Z,5.82
2023-07-16T00:42:01.528Z,5.82
2023-07-16T00:42:13.265Z,5.85
2023-07-16T00:42:24.979Z,6.50
2023-07-16T00:42:37.098Z,6.22
2023-07-16T00:42:48.848Z,5.70
2023-07-16T00:43:00.579Z,5.28
2023-07-16T00:43:12.335Z,5.72
2023-07-16T00:43:24.065Z,6.07
2023-07-16T00:43:35.775Z,5.95
2023-07-16T00:43:47.624Z,5.72
2023-07-16T00:43:59.404Z,5.80
2023-07-16T00:44:11.163Z,6.10
2023-07-16T00:44:23.185Z,5.65
2023-07-16T00:44:34.976Z,5.88
2023-07-16T00:44:46.787Z,5.90
2023-07-16T00:44:58.537Z,5.72
2023-07-16T00:45:13.427Z,5.93
2023-07-16T00:45:25.209Z,5.70
2023-07-16T00:45:38.104Z,5.68
2023-07-16T00:45:50.815Z,5.57
2023-07-16T00:46:03.098Z,5.90
2023-07-16T00:46:17.107Z,6.07
2023-07-16T00:46:29.838Z,5.95
2023-07-16T00:46:41.742Z,5.88
2023-07-16T00:46:53.787Z,5.45
2023-07-16T00:47:05.679Z,5.10
2023-07-16T00:47:17.633Z,5.38
2023-07-16T00:47:29.577Z,5.65
2023-07-16T00:47:43.194Z,5.65
2023-07-16T00:47:55.154Z,5.20
2023-07-16T00:48:07.907Z,4.80
2023-07-16T00:48:20.688Z,4.88
2023-07-16T00:48:32.551Z,5.35
2023-07-16T00:48:45.804Z,5.72
2023-07-16T00:48:57.724Z,5.38
2023-07-16T00:49:09.588Z,4.97
2023-07-16T00:49:21.503Z,5.43
2023-07-16T00:49:33.388Z,5.88
2023-07-16T00:49:45.269Z,5.60
2023-07-16T00:49:57.964Z,4.80
2023-07-16T00:50:11.290Z,4.95
2023-07-16T00:50:23.110Z,5.18
2023-07-16T00:50:35.958Z,5.70
2023-07-16T00:50:47.818Z,5.72
2023-07-16T00:51:02.630Z,5.68
2023-07-16T00:51:14.838Z,4.95
2023-07-16T00:51:27.245Z,4.70
2023-07-16T00:51:39.094Z,4.60
2023-07-16T00:51:53.054Z,5.00
2023-07-16T00:52:06.638Z,5.38
2023-07-16T00:52:20.107Z,5.78
2023-07-16T00:52:31.900Z,5.65
2023-07-16T00:52:43.674Z,5.03
2023-07-16T00:52:55.480Z,5.10
2023-07-16T00:53:07.823Z,5.45
2023-07-16T00:53:20.606Z,5.63
2023-07-16T00:53:32.893Z,5.20
2023-07-16T00:53:45.770Z,5.28
2023-07-16T00:53:57.526Z,5.35
2023-07-16T00:54:09.481Z,5.32
2023-07-16T00:54:21.675Z,5.10
2023-07-16T00:54:33.790Z,4.85
2023-07-16T00:54:46.378Z,4.85
2023-07-16T00:54:58.164Z,5.10
2023-07-16T00:55:10.883Z,4.97
2023-07-16T00:55:22.647Z,4.95
2023-07-16T00:55:34.986Z,4.82
2023-07-16T00:55:47.080Z,4.95
2023-07-16T00:55:58.879Z,4.70
2023-07-16T00:56:11.747Z,4.65
2023-07-16T00:56:23.654Z,4.97
2023-07-16T00:56:38.106Z,5.25
2023-07-16T00:56:49.935Z,4.97
2023-07-16T00:57:01.771Z,4.60
2023-07-16T00:57:13.536Z,5.03
2023-07-16T00:57:25.850Z,5.20
2023-07-16T00:57:37.938Z,5.22
2023-07-16T00:57:49.694Z,5.18
2023-07-16T00:58:08.413Z,5.10
2023-07-16T00:58:20.186Z,5.25
2023-07-16T00:58:31.970Z,5.30
2023-07-16T00:58:43.668Z,5.57
2023-07-16T00:58:55.486Z,5.53
2023-07-16T00:59:07.243Z,5.43
2023-07-16T00:59:18.973Z,5.55
2023-07-16T00:59:31.350Z,5.30
2023-07-16T00:59:44.198Z,5.20
2023-07-16T00:59:56.054Z,5.28
2023-07-16T01:00:10.200Z,4.97
2023-07-16T01:00:22.016Z,4.57
2023-07-16T01:00:34.232Z,4.80
2023-07-16T01:00:46.088Z,4.85
2023-07-16T01:00:57.814Z,5.13
2023-07-16T01:01:09.583Z,5.30
2023-07-16T01:01:22.758Z,5.35
2023-07-16T01:01:34.548Z,5.30
2023-07-16T01:01:46.376Z,5.38
2023-07-16T01:01:59.505Z,4.90
2023-07-16T01:02:11.551Z,5.13
2023-07-16T01:02:23.493Z,5.45
2023-07-16T01:02:35.353Z,5.80
2023-07-16T01:02:47.135Z,5.75
2023-07-16T01:02:59.548Z,5.25
2023-07-16T01:03:13.752Z,5.20
2023-07-16T01:03:25.761Z,5.80
2023-07-16T01:03:38.089Z,5.63
2023-07-16T01:03:49.961Z,5.30
2023-07-16T01:04:01.783Z,5.10
2023-07-16T01:04:13.760Z,5.47
2023-07-16T01:04:25.584Z,5.20
2023-07-16T01:04:37.495Z,5.35
2023-07-16T01:04:49.440Z,5.47
2023-07-16T01:05:01.497Z,5.35
2023-07-16T01:05:13.380Z,5.07
2023-07-16T01:05:31.891Z,5.25
2023-07-16T01:05:50.159Z,5.70
2023-07-16T01:06:11.282Z,5.88
2023-07-16T01:06:30.729Z,6.15
2023-07-16T01:06:47.209Z,5.80
2023-07-16T01:07:05.657Z,5.90
2023-07-16T01:07:19.369Z,5.13
2023-07-16T01:07:32.360Z,4.88
2023-07-16T01:07:56.503Z,5.03
2023-07-16T01:08:10.790Z,5.20
2023-07-16T01:08:31.548Z,5.43
2023-07-16T01:08:47.994Z,5.22
2023-07-16T01:09:07.686Z,5.70
2023-07-16T01:09:20.484Z,6.07
2023-07-16T01:09:33.252Z,6.05
2023-07-16T01:09:45.893Z,5.90
2023-07-16T01:09:58.898Z,5.38
2023-07-16T01:10:11.253Z,5.03
2023-07-16T01:10:24.889Z,4.55
2023-07-16T01:10:37.497Z,4.47
2023-07-16T01:10:50.392Z,4.63
2023-07-16T01:11:06.757Z,4.90
2023-07-16T01:11:20.136Z,5.40
2023-07-16T01:11:33.730Z,5.40
2023-07-16T01:11:46.660Z,5.43
2023-07-16T01:12:01.344Z,5.50
2023-07-16T01:12:14.614Z,5.65
2023-07-16T01:12:28.020Z,5.93
2023-07-16T01:12:40.245Z,6.07
2023-07-16T01:12:53.954Z,5.75
2023-07-16T01:13:05.914Z,5.07
2023-07-16T01:13:17.940Z,5.40
2023-07-16T01:13:30.251Z,5.55
2023-07-16T01:13:42.124Z,5.22
2023-07-16T01:13:55.050Z,5.15
2023-07-16T01:14:07.918Z,5.18
2023-07-16T01:14:20.340Z,5.30
2023-07-16T01:14:32.706Z,5.63
2023-07-16T01:14:44.707Z,5.68
2023-07-16T01:14:57.808Z,5.57
2023-07-16T01:15:10.314Z,5.32
2023-07-16T01:15:25.115Z,5.32
2023-07-16T01:15:37.016Z,5.47
2023-07-16T01:15:48.856Z,5.80
2023-07-16T01:16:00.693Z,5.88
2023-07-16T01:16:20.197Z,5.60
2023-07-16T01:16:33.589Z,5.43
2023-07-16T01:16:45.532Z,5.78
2023-07-16T01:16:57.439Z,5.85
2023-07-16T01:17:09.221Z,5.60
2023-07-16T01:17:20.978Z,5.40
2023-07-16T01:17:32.795Z,5.13
2023-07-16T01:17:44.958Z,5.28
2023-07-16T01:17:56.816Z,5.25
2023-07-16T01:18:08.694Z,5.28
2023-07-16T01:18:20.465Z,5.30
2023-07-16T01:18:32.246Z,5.55
2023-07-16T01:18:43.976Z,5.70
2023-07-16T01:18:55.838Z,5.43
2023-07-16T01:19:08.761Z,5.15
2023-07-16T01:19:20.531Z,5.10
2023-07-16T01:19:32.282Z,5.13
2023-07-16T01:19:43.960Z,5.13
2023-07-16T01:19:55.698Z,5.22
2023-07-16T01:20:08.871Z,5.18
2023-07-16T01:20:20.684Z,5.15
2023-07-16T01:20:32.471Z,5.20
2023-07-16T01:20:44.269Z,5.45
2023-07-16T01:20:56.095Z,5.63
2023-07-16T01:21:07.988Z,5.57
2023-07-16T01:21:22.335Z,5.47
2023-07-16T01:21:40.865Z,5.07
2023-07-16T01:22:11.630Z,4.78
2023-07-16T01:22:36.808Z,4.82
2023-07-16T01:23:09.394Z,4.93
2023-07-16T01:23:35.099Z,4.57
2023-07-16T01:24:04.674Z,4.60
2023-07-16T01:24:49.556Z,4.95
2023-07-16T01:25:10.705Z,4.85
2023-07-16T01:25:37.468Z,4.90
2023-07-16T01:26:06.397Z,4.40
2023-07-16T01:26:33.718Z,4.70
2023-07-16T01:27:14.216Z,4.70
2023-07-16T01:27:45.577Z,4.70
2023-07-16T01:28:12.963Z,4.63
2023-07-16T01:28:49.464Z,4.32
2023-07-16T01:29:28.697Z,4.55
2023-07-16T01:29:45.276Z,4.53
2023-07-16T01:29:59.651Z,4.35
2023-07-16T01:30:15.738Z,4.03
2023-07-16T01:30:28.602Z,4.32
2023-07-16T01:30:44.956Z,4.38
2023-07-16T01:30:59.738Z,4.43
2023-07-16T01:31:12.231Z,5.15
2023-07-16T01:31:26.061Z,5.32
2023-07-16T01:31:38.770Z,5.03
2023-07-16T01:31:52.155Z,4.53
2023-07-16T01:32:05.423Z,4.82
2023-07-16T01:32:18.117Z,5.13
2023-07-16T01:32:32.038Z,4.75
2023-07-16T01:32:47.512Z,4.80
2023-07-16T01:33:00.100Z,5.15
2023-07-16T01:33:17.788Z,5.03
2023-07-16T01:33:30.581Z,4.45
2023-07-16T01:33:43.533Z,4.60
2023-07-16T01:34:00.049Z,4.95
2023-07-16T01:34:12.387Z,4.68
2023-07-16T01:34:27.607Z,4.55
2023-07-16T01:34:40.393Z,4.78
2023-07-16T01:34:54.377Z,5.22
2023-07-16T01:35:07.090Z,5.22
2023-07-16T01:35:19.362Z,5.05
2023-07-16T01:35:31.283Z,4.95
2023-07-16T01:35:44.137Z,5.20
2023-07-16T01:35:57.321Z,5.15
2023-07-16T01:36:09.355Z,5.10
2023-07-16T01:36:22.480Z,5.13
2023-07-16T01:36:36.504Z,5.32
2023-07-16T01:36:49.392Z,5.00
2023-07-16T01:37:01.740Z,4.43
2023-07-16T01:37:13.727Z,4.45
2023-07-16T01:37:25.527Z,4.15
2023-07-16T01:37:37.430Z,4.38
2023-07-16T01:37:49.384Z,4.47
2023-07-16T01:38:01.190Z,4.75
2023-07-16T01:38:12.974Z,4.55
2023-07-16T01:38:24.904Z,4.70
2023-07-16T01:38:37.420Z,4.75
2023-07-16T01:38:49.384Z,5.30
2023-07-16T01:39:01.605Z,5.05
2023-07-16T01:39:13.846Z,4.85
2023-07-16T01:39:26.094Z,4.68
2023-07-16T01:39:38.541Z,5.00
2023-07-16T01:39:50.298Z,4.68
2023-07-16T01:40:02.520Z,4.43
2023-07-16T01:40:15.194Z,4.95
2023-07-16T01:40:26.919Z,5.43
2023-07-16T01:40:38.731Z,5.15
2023-07-16T01:40:50.631Z,5.18
2023-07-16T01:41:02.616Z,5.55
2023-07-16T01:41:14.446Z,5.70
2023-07-16T01:41:26.781Z,5.30
2023-07-16T01:41:38.588Z,5.22
2023-07-16T01:41:50.295Z,5.15
2023-07-16T01:42:02.288Z,4.93
2023-07-16T01:42:14.040Z,5.32
2023-07-16T01:42:25.895Z,5.20
2023-07-16T01:42:37.685Z,5.00
2023-07-16T01:42:49.455Z,5.63
2023-07-16T01:43:01.226Z,5.82
2023-07-16T01:43:12.997Z,5.45
2023-07-16T01:43:24.713Z,5.07
2023-07-16T01:43:36.454Z,5.18
2023-07-16T01:43:48.183Z,4.95
2023-07-16T01:43:59.970Z,5.07
2023-07-16T01:44:11.711Z,5.07
2023-07-16T01:44:24.888Z,5.63
2023-07-16T01:44:36.613Z,5.78
2023-07-16T01:44:48.380Z,5.38
2023-07-16T01:45:00.297Z,5.38
2023-07-16T01:45:12.112Z,5.32
2023-07-16T01:45:24.049Z,5.40
2023-07-16T01:45:36.912Z,5.45
2023-07-16T01:45:48.685Z,5.82
2023-07-16T01:46:00.514Z,5.63
2023-07-16T01:46:12.894Z,4.97
2023-07-16T01:46:24.998Z,4.78
2023-07-16T01:46:36.912Z,5.00
2023-07-16T01:47:04.795Z,5.25
2023-07-16T01:47:24.684Z,4.78
2023-07-16T01:47:44.277Z,4.95
2023-07-16T01:48:04.455Z,4.43
2023-07-16T01:48:30.273Z,4.82
2023-07-16T01:48:42.131Z,4.68
2023-07-16T01:48:53.916Z,4.68
2023-07-16T01:49:07.608Z,5.13
2023-07-16T01:49:19.360Z,5.05
2023-07-16T01:49:31.133Z,5.20
2023-07-16T01:49:42.917Z,5.13
2023-07-16T01:49:54.748Z,4.68
2023-07-16T01:50:08.129Z,4.85
2023-07-16T01:50:21.003Z,4.82
2023-07-16T01:50:33.256Z,4.90
2023-07-16T01:50:45.236Z,4.95
2023-07-16T01:50:57.019Z,5.10
2023-07-16T01:51:08.765Z,5.38
2023-07-16T01:51:20.521Z,5.30
2023-07-16T01:51:32.241Z,4.82
2023-07-16T01:51:43.966Z,4.50
2023-07-16T01:51:55.748Z,4.60
2023-07-16T01:52:08.337Z,4.65
2023-07-16T01:52:20.116Z,4.97
2023-07-16T01:52:31.819Z,4.75
2023-07-16T01:52:43.573Z,4.80
2023-07-16T01:52:55.370Z,4.95
2023-07-16T01:53:07.115Z,5.20
2023-07-16T01:53:18.847Z,4.93
2023-07-16T01:53:31.199Z,4.70
2023-07-16T01:53:42.985Z,4.40
2023-07-16T01:53:54.781Z,4.80
2023-07-16T01:54:06.503Z,4.70
2023-07-16T01:54:18.221Z,4.30
2023-07-16T01:54:29.992Z,4.43
2023-07-16T01:54:43.262Z,4.75
2023-07-16T01:54:55.013Z,4.88
2023-07-16T01:55:07.696Z,4.88
2023-07-16T01:55:19.481Z,4.93
2023-07-16T01:55:32.226Z,4.43
2023-07-16T01:55:44.102Z,4.32
2023-07-16T01:55:56.166Z,4.50
2023-07-16T01:56:08.057Z,5.15
2023-07-16T01:56:19.855Z,5.20
2023-07-16T01:56:33.587Z,5.05
2023-07-16T01:56:45.370Z,4.80
2023-07-16T01:56:57.118Z,4.63
2023-07-16T01:57:08.975Z,4.90
2023-07-16T01:57:20.721Z,5.03
2023-07-16T01:57:32.478Z,4.88
2023-07-16T01:57:44.225Z,4.75
2023-07-16T01:57:55.944Z,4.72
2023-07-16T01:58:07.669Z,4.70
2023-07-16T01:58:19.657Z,5.15
2023-07-16T01:58:31.420Z,5.32
2023-07-16T01:58:43.186Z,5.45
2023-07-16T01:58:54.953Z,5.13
2023-07-16T01:59:07.758Z,5.20
2023-07-16T01:59:19.482Z,5.35
2023-07-16T01:59:32.655Z,5.22
2023-07-16T01:59:44.352Z,5.55
2023-07-16T01:59:56.092Z,5.43
2023-07-16T02:00:08.968Z,5.40
2023-07-16T02:00:31.143Z,5.10
2023-07-16T02:00:43.214Z,4.90
2023-07-16T02:00:55.007Z,4.97
2023-07-16T02:01:06.774Z,5.38
2023-07-16T02:01:18.646Z,5.40
2023-07-16T02:01:30.580Z,5.30
2023-07-16T02:01:42.444Z,5.40
2023-07-16T02:01:54.326Z,5.25
2023-07-16T02:02:06.455Z,5.55
2023-07-16T02:02:18.204Z,5.30
2023-07-16T02:02:31.195Z,5.00
2023-07-16T02:02:43.120Z,4.78
2023-07-16T02:02:55.019Z,4.78
2023-07-16T02:03:07.031Z,4.95
2023-07-16T02:03:19.122Z,5.10
2023-07-16T02:03:31.276Z,5.32
2023-07-16T02:03:43.238Z,5.35
2023-07-16T02:03:55.072Z,5.45
2023-07-16T02:04:06.839Z,5.30
2023-07-16T02:04:20.060Z,5.60
2023-07-16T02:04:31.753Z,5.25
2023-07-16T02:04:44.330Z,4.82
2023-07-16T02:04:56.124Z,4.80
2023-07-16T02:05:08.435Z,4.95
2023-07-16T02:05:20.118Z,5.30
2023-07-16T02:05:32.928Z,5.30
2023-07-16T02:05:44.670Z,4.82
2023-07-16T02:05:56.428Z,4.63
2023-07-16T02:06:08.298Z,4.57
2023-07-16T02:06:20.092Z,4.78
2023-07-16T02:06:34.027Z,4.90
2023-07-16T02:06:45.771Z,5.10
2023-07-16T02:06:57.634Z,5.35
2023-07-16T02:07:09.407Z,5.18
2023-07-16T02:07:21.204Z,5.35
2023-07-16T02:07:32.932Z,5.25
2023-07-16T02:07:44.711Z,5.38
2023-07-16T02:07:56.706Z,5.50
2023-07-16T02:08:08.458Z,5.57
2023-07-16T02:08:20.167Z,5.60
2023-07-16T02:08:31.916Z,5.65
2023-07-16T02:08:43.804Z,5.60
2023-07-16T02:08:55.665Z,5.30
2023-07-16T02:09:07.452Z,5.00
2023-07-16T02:09:19.994Z,5.15
2023-07-16T02:09:31.748Z,5.10
2023-07-16T02:09:43.507Z,5.00
2023-07-16T02:09:55.218Z,5.45
2023-07-16T02:10:07.879Z,5.53
2023-07-16T02:10:19.679Z,5.28
2023-07-16T02:10:32.841Z,5.25
2023-07-16T02:10:44.752Z,5.68
2023-07-16T02:10:57.158Z,5.55
2023-07-16T02:11:09.189Z,5.85
2023-07-16T02:11:20.908Z,5.57
2023-07-16T02:11:33.688Z,5.65
2023-07-16T02:11:45.460Z,5.70
2023-07-16T02:11:57.175Z,5.82
2023-07-16T02:12:09.125Z,5.60
2023-07-16T02:12:21.080Z,5.68
2023-07-16T02:12:32.844Z,5.75
2023-07-16T02:12:44.680Z,5.55
2023-07-16T02:12:56.420Z,5.22
2023-07-16T02:13:08.156Z,4.90
2023-07-16T02:13:21.024Z,4.95
2023-07-16T02:13:32.785Z,5.43
2023-07-16T02:13:44.649Z,5.72
2023-07-16T02:13:56.393Z,6.13
2023-07-16T02:14:08.142Z,5.75
2023-07-16T02:14:19.938Z,5.50
2023-07-16T02:14:33.775Z,5.05
2023-07-16T02:14:45.531Z,5.57
2023-07-16T02:14:57.248Z,5.80
2023-07-16T02:15:10.816Z,5.40
2023-07-16T02:15:22.814Z,5.43
2023-07-16T02:15:34.578Z,5.70
2023-07-16T02:15:48.492Z,5.50
2023-07-16T02:16:00.460Z,5.53
2023-07-16T02:16:12.361Z,5.93
2023-07-16T02:16:25.984Z,6.10
2023-07-16T02:16:37.895Z,5.57
2023-07-16T02:16:49.710Z,5.90
2023-07-16T02:17:01.461Z,5.75
2023-07-16T02:17:13.386Z,5.50
2023-07-16T02:17:26.814Z,5.45
2023-07-16T02:17:38.597Z,5.70
2023-07-16T02:17:50.506Z,5.60
2023-07-16T02:18:02.282Z,5.65
2023-07-16T02:18:14.178Z,5.60
2023-07-16T02:18:26.649Z,5.72
2023-07-16T02:18:38.381Z,5.95
2023-07-16T02:18:50.367Z,5.97
2023-07-16T02:19:02.084Z,5.93
2023-07-16T02:19:13.804Z,5.60
2023-07-16T02:19:25.548Z,5.65
2023-07-16T02:19:37.320Z,5.32
2023-07-16T02:19:49.000Z,5.22
2023-07-16T02:20:00.765Z,5.13
2023-07-16T02:20:12.918Z,5.63
2023-07-16T02:20:24.707Z,5.47
2023-07-16T02:20:36.424Z,5.65
2023-07-16T02:20:48.349Z,5.55
2023-07-16T02:21:00.131Z,5.80
2023-07-16T02:21:11.860Z,5.65
2023-07-16T02:21:23.745Z,5.43
2023-07-16T02:21:35.522Z,5.82
2023-07-16T02:21:47.228Z,6.22
2023-07-16T02:21:58.928Z,6.07
2023-07-16T02:22:10.655Z,5.53
2023-07-16T02:22:22.450Z,5.35
2023-07-16T02:22:36.568Z,5.95
2023-07-16T02:22:48.571Z,6.03
2023-07-16T02:23:00.444Z,6.00
2023-07-16T02:23:12.616Z,5.55
2023-07-16T02:23:24.361Z,5.45
2023-07-16T02:23:36.134Z,5.45
2023-07-16T02:23:47.884Z,5.57
2023-07-16T02:23:59.706Z,5.38
2023-07-16T02:24:11.471Z,5.50
2023-07-16T02:24:23.274Z,5.22
2023-07-16T02:24:36.980Z,5.13
2023-07-16T02:24:48.714Z,5.35
2023-07-16T02:25:00.648Z,5.40
2023-07-16T02:25:12.381Z,5.40
2023-07-16T02:25:24.785Z,5.43
2023-07-16T02:25:36.525Z,5.72
2023-07-16T02:25:48.302Z,5.78
2023-07-16T02:26:02.361Z,5.73
2023-07-16T02:26:14.366Z,5.80
2023-07-16T02:26:28.008Z,5.72
2023-07-16T02:26:40.647Z,5.25
2023-07-16T02:26:52.437Z,5.53
2023-07-16T02:27:04.847Z,5.68
2023-07-16T02:27:16.599Z,5.90
2023-07-16T02:27:28.365Z,5.68
2023-07-16T02:27:40.126Z,5.53
2023-07-16T02:27:52.034Z,6.05
2023-07-16T02:28:04.131Z,5.95
2023-07-16T02:28:16.027Z,6.07
2023-07-16T02:28:27.885Z,5.72
2023-07-16T02:28:39.871Z,5.88
2023-07-16T02:28:51.620Z,6.05
2023-07-16T02:29:03.379Z,6.28
2023-07-16T02:29:15.050Z,5.65
2023-07-16T02:29:26.745Z,5.60
2023-07-16T02:29:40.694Z,5.90
2023-07-16T02:29:52.481Z,6.30
2023-07-16T02:30:05.210Z,6.53
2023-07-16T02:30:17.035Z,6.07
2023-07-16T02:30:28.886Z,5.60
2023-07-16T02:30:41.884Z,5.47
2023-07-16T02:30:53.652Z,5.70
2023-07-16T02:31:05.908Z,5.32
2023-07-16T02:31:18.278Z,5.05
2023-07-16T02:31:30.106Z,5.05
2023-07-16T02:31:41.932Z,5.22
2023-07-16T02:31:54.799Z,5.45
2023-07-16T02:32:07.458Z,5.78
2023-07-16T02:32:19.385Z,5.97
2023-07-16T02:32:31.180Z,5.93
2023-07-16T02:32:45.933Z,5.72
2023-07-16T02:32:57.787Z,5.65
2023-07-16T02:33:09.682Z,5.57
2023-07-16T02:33:21.446Z,5.45
2023-07-16T02:33:33.176Z,5.32
2023-07-16T02:33:44.951Z,5.40
2023-07-16T02:33:56.662Z,5.50
2023-07-16T02:34:08.369Z,5.93
2023-07-16T02:34:20.104Z,6.05
2023-07-16T02:34:31.826Z,5.90
2023-07-16T02:34:43.580Z,5.70
2023-07-16T02:34:55.356Z,5.88
2023-07-16T02:35:08.185Z,5.90
2023-07-16T02:35:20.282Z,5.78
2023-07-16T02:35:32.083Z,5.55
2023-07-16T02:35:47.323Z,5.82
2023-07-16T02:36:00.917Z,5.90
2023-07-16T02:36:12.628Z,5.53
2023-07-16T02:36:24.420Z,5.43
2023-07-16T02:36:36.127Z,5.80
2023-07-16T02:36:47.875Z,5.95
2023-07-16T02:36:59.597Z,5.55
2023-07-16T02:37:13.417Z,5.95
2023-07-16T02:37:25.196Z,6.13
2023-07-16T02:37:37.123Z,6.15
2023-07-16T02:37:48.905Z,5.95
2023-07-16T02:38:00.625Z,6.68
2023-07-16T02:38:12.392Z,6.80
2023-07-16T02:38:24.160Z,6.57
2023-07-16T02:38:36.033Z,6.00
2023-07-16T02:38:47.692Z,6.00
2023-07-16T02:38:59.367Z,5.85
2023-07-16T02:39:11.265Z,5.85
2023-07-16T02:39:23.046Z,5.72
2023-07-16T02:39:35.021Z,5.70
2023-07-16T02:39:46.931Z,5.80
2023-07-16T02:40:00.917Z,5.75
2023-07-16T02:40:12.880Z,5.30
2023-07-16T02:40:28.002Z,5.28
2023-07-16T02:40:44.150Z,5.45
2023-07-16T02:40:55.901Z,5.60
2023-07-16T02:41:07.724Z,5.97
2023-07-16T02:41:19.553Z,5.82
2023-07-16T02:41:31.331Z,5.60
2023-07-16T02:41:43.100Z,5.75
2023-07-16T02:41:54.897Z,5.75
2023-07-16T02:42:06.742Z,5.55
2023-07-16T02:42:18.475Z,5.68
2023-07-16T02:42:30.304Z,6.40
2023-07-16T02:42:42.055Z,6.25
2023-07-16T02:42:53.775Z,5.60
2023-07-16T02:43:05.525Z,5.87
2023-07-16T02:43:17.301Z,6.15
2023-07-16T02:43:31.047Z,6.15
2023-07-16T02:43:42.781Z,5.68
2023-07-16T02:44:00.946Z,5.80
2023-07-16T02:44:12.709Z,6.40
2023-07-16T02:44:27.358Z,5.93
2023-07-16T02:44:40.471Z,6.07
2023-07-16T02:44:52.240Z,5.70
2023-07-16T02:45:04.772Z,5.63
2023-07-16T02:45:16.861Z,5.63
2023-07-16T02:45:28.622Z,5.43
2023-07-16T02:45:40.600Z,5.53
2023-07-16T02:45:52.386Z,5.55
2023-07-16T02:46:04.122Z,5.80
2023-07-16T02:46:16.124Z,5.18
2023-07-16T02:46:28.110Z,5.55
2023-07-16T02:46:40.560Z,5.75
2023-07-16T02:46:52.458Z,5.70
2023-07-16T02:47:04.843Z,5.90
2023-07-16T02:47:16.692Z,6.05
2023-07-16T02:47:28.432Z,5.75
2023-07-16T02:47:40.257Z,5.68
2023-07-16T02:47:51.980Z,5.88
2023-07-16T02:48:06.505Z,5.63
2023-07-16T02:48:18.439Z,5.93
2023-07-16T02:48:30.215Z,5.82
2023-07-16T02:48:41.928Z,5.53
2023-07-16T02:48:54.516Z,5.30
2023-07-16T02:49:06.404Z,5.32
2023-07-16T02:49:18.249Z,5.25
2023-07-16T02:49:29.994Z,5.35
2023-07-16T02:49:43.192Z,5.40